• Join FlightAware (Why Join?)
  • Login
  • US Flag 
12:40AM EDT


 

Airport Tracker/Info


-or-


 

Live Flight TrackerFlight Track Log ✈ DAL1781 ✈ 01-Jul-2013 ✈ KMSP - KATL

Flight Track Log - Related Links

Times and Time Zones

All times are in EDT time to prevent confusion due to time zone crossing. See the DAL1781 flight status page for this flight to view local times or setup timezone preferences in your user account.

Time Position Orientation Groundspeed Altitude Reporting Facility
EDT Latitude Longitude Course Direction KTS MPH feet Rate Location/Type
04:12PM 44.8833 -93.2833 180° South 197 227 2,800  Level Minneapolis TRACON
04:13PM 44.8667 -93.4000 259° West 273 314 5,600 2,400 Climbing Minneapolis TRACON
04:14PM 44.6100 -92.9635 153° Southeast  Level Estimated
04:14PM 44.8500 -93.4833 254° West 289 333 7,700  Level Minneapolis TRACON
04:15PM 44.5191 -92.8779 157° South  Level Estimated
04:15PM 44.8000 -93.5500 223° Southwest 293 337 10,500  Level Minneapolis TRACON
04:15PM 44.7633 -93.5706 202° Southwest 307 353 11,900 2,220 Climbing Minneapolis Center
04:16PM 44.4283 -92.7926 152° Southeast  Level Estimated
04:16PM 44.6997 -93.4983 141° Southeast 305 351 14,000  Level Minneapolis Center
04:17PM 44.3373 -92.7076 180° South  Level Estimated
04:17PM 44.6294 -93.4094 138° Southeast 343 395 15,600  Level Minneapolis Center
04:18PM 44.5356 -93.2864 137° Southeast 399 459 17,600 1,920 Climbing Minneapolis Center
04:19PM 44.4536 -93.1778 137° Southeast 409 471 19,600 1,740 Climbing Minneapolis Center
04:21PM 44.3664 -93.0642 137° Southeast 423 487 21,200 1,620 Climbing Minneapolis Center
04:22PM 44.2758 -92.9472 137° Southeast 438 504 23,000 1,860 Climbing Minneapolis Center
04:23PM 44.1639 -92.8572 150° Southeast 458 527 25,100 3,120 Climbing Minneapolis Center
04:24PM 44.0333 -92.7700 154° Southeast 445 512 29,500 2,820 Climbing Minneapolis Center
04:25PM 43.9350 -92.7019 154° Southeast 404 465 31,000 1,200 Climbing Minneapolis Center
04:26PM 43.8339 -92.6317 153° Southeast 405 466 32,100 900 Climbing Minneapolis Center
04:27PM 43.7172 -92.5842 164° South 434 499 32,900 720 Climbing Minneapolis Center
04:28PM 43.5947 -92.5678 174° South 447 514 33,700 900 Climbing Minneapolis Center
04:29PM 43.4714 -92.5467 173° South 449 517 34,800 1,080 Climbing Minneapolis Center
04:30PM 43.3214 -92.5228 173° South 456 525 36,000 960 Climbing Minneapolis Center
04:31PM 43.1706 -92.4986 173° South 459 528 37,000 420 Climbing Minneapolis Center
04:32PM 43.0472 -92.4789 173° South 455 524 37,000  Level Minneapolis Center
04:33PM 42.9231 -92.4575 173° South 455 524 37,000  Level Minneapolis Center
04:34PM 42.8278 -92.4064 159° South 460 529 37,000  Level Chicago Center
04:35PM 42.7208 -92.3178 149° Southeast 458 527 37,000  Level Chicago Center
04:36PM 42.6133 -92.2250 148° Southeast 464 534 37,000  Level Chicago Center
04:37PM 42.5056 -92.1411 150° Southeast 455 524 37,000  Level Chicago Center
04:38PM 42.3744 -92.0392 150° Southeast 458 527 37,000  Level Chicago Center
04:39PM 42.2664 -91.9550 150° Southeast 455 524 37,000  Level Chicago Center
04:40PM 42.1594 -91.8714 150° Southeast 452 520 37,000  Level Chicago Center
04:41PM 42.0519 -91.7869 150° Southeast 452 520 37,000  Level Chicago Center
04:42PM 41.9242 -91.6906 151° Southeast 448 516 37,000  Level Chicago Center
04:43PM 41.8194 -91.6106 150° Southeast 441 507 37,000  Level Chicago Center
04:44PM 41.7133 -91.5297 150° Southeast 442 509 37,000  Level Chicago Center
04:45PM 41.6081 -91.4494 150° Southeast 441 507 37,000  Level Chicago Center
04:46PM 41.5025 -91.3694 150° Southeast 441 507 37,000  Level Chicago Center
04:47PM 41.3892 -91.2836 150° Southeast 443 510 37,000  Level Chicago Center
04:48PM 41.2611 -91.1872 150° Southeast 442 509 37,000  Level Chicago Center
04:49PM 41.1539 -91.1081 151° Southeast 442 509 37,000  Level Chicago Center
04:50PM 41.0472 -91.0292 151° Southeast 440 506 37,000  Level Chicago Center
04:51PM 40.9397 -90.9492 151° Southeast 443 510 37,000  Level Chicago Center
04:52PM 40.8328 -90.8703 151° Southeast 443 510 37,000  Level Chicago Center
04:53PM 40.7269 -90.7922 151° Southeast 440 506 37,000  Level Chicago Center
04:54PM 40.5994 -90.6989 151° Southeast 439 505 37,000  Level Chicago Center
04:56PM 40.4931 -90.6211 151° Southeast 439 505 37,000  Level Chicago Center
04:57PM 40.3867 -90.5442 151° Southeast 439 505 37,000  Level Chicago Center
04:58PM 40.2814 -90.4675 151° Southeast 437 503 37,000  Level Kansas City Center
04:59PM 40.1775 -90.3917 151° Southeast 433 498 37,000  Level Kansas City Center
05:00PM 40.0725 -90.3164 151° Southeast 433 498 37,000  Level Kansas City Center
05:01PM 39.9678 -90.2397 151° Southeast 432 497 37,000  Level Kansas City Center
05:03PM 39.7367 -90.0750 151° Southeast 431 496 37,000  Level Kansas City Center
05:04PM 39.6356 -90.0036 151° Southeast 429 494 37,100 240 Climbing Kansas City Center
05:05PM 39.5311 -89.9283 151° Southeast 428 493 37,500 420 Climbing Kansas City Center
05:06PM 39.4219 -89.8511 151° Southeast 439 505 38,000 540 Climbing Kansas City Center
05:07PM 39.2872 -89.7569 152° Southeast 451 519 38,700 480 Climbing Kansas City Center
05:08PM 39.1728 -89.6764 151° Southeast 451 519 39,000 120 Climbing Kansas City Center
05:09PM 39.0636 -89.6011 152° Southeast 446 513 39,000  Level Kansas City Center
05:10PM 38.9442 -89.5181 152° Southeast 452 520 39,000  Level Kansas City Center
05:11PM 38.8328 -89.4408 152° Southeast 454 522 39,000  Level Kansas City Center
05:12PM 38.7214 -89.3644 152° Southeast 454 522 39,000  Level Kansas City Center
05:13PM 38.6017 -89.2828 152° Southeast 452 520 39,000  Level Kansas City Center
05:15PM 38.4796 -89.1531 140° Southeast  Level Estimated
05:15PM 38.4006 -89.0719 140° Southeast 450 518 39,000  Level Kansas City Center
05:16PM 38.3100 -88.9758 140° Southeast 450 518 39,000  Level Kansas City Center
05:17PM 38.2136 -88.8725 140° Southeast 453 521 39,000  Level Kansas City Center
05:18PM 38.1189 -88.7694 139° Southeast 450 518 39,000  Level Kansas City Center
05:19PM 38.0247 -88.6644 139° Southeast 439 505 39,000  Level Kansas City Center
05:20PM 37.9319 -88.5628 139° Southeast 438 504 39,000  Level Kansas City Center
05:21PM 37.8186 -88.4411 140° Southeast 442 509 39,000  Level Kansas City Center
05:22PM 37.7242 -88.3392 139° Southeast 445 512 39,000  Level Kansas City Center
05:23PM 37.6294 -88.2375 140° Southeast 445 512 39,000  Level Kansas City Center
05:24PM 37.5817 -88.1850 139° Southeast 440 506 39,000  Level Memphis Center
05:25PM 37.4797 -88.0781 140° Southeast 440 506 39,000  Level Memphis Center
05:26PM 37.3842 -87.9792 141° Southeast 440 506 39,000  Level Memphis Center
05:27PM 37.2903 -87.8775 139° Southeast 440 506 39,000  Level Memphis Center
05:28PM 37.1925 -87.7764 141° Southeast 453 521 39,000  Level Memphis Center
05:29PM 37.0989 -87.6808 141° Southeast 453 521 39,000  Level Memphis Center
05:30PM 37.0050 -87.5825 140° Southeast 447 514 39,000  Level Memphis Center
05:31PM 36.9089 -87.4794 139° Southeast 447 514 39,000  Level Memphis Center
05:32PM 36.8128 -87.3794 140° Southeast 447 514 39,000  Level Memphis Center
05:33PM 36.7186 -87.2819 140° Southeast 447 514 39,000  Level Memphis Center
05:34PM 36.6331 -87.1947 141° Southeast 447 514 39,000  Level Memphis Center
05:35PM 36.5389 -87.0950 140° Southeast 447 514 39,000  Level Memphis Center
05:36PM 36.4467 -87.0006 141° Southeast 439 505 39,000  Level Memphis Center
05:37PM 36.3353 -86.8919 142° Southeast 449 517 39,000  Level Memphis Center
05:38PM 36.2450 -86.7981 140° Southeast 444 511 39,000  Level Memphis Center
05:39PM 36.1525 -86.7017 140° Southeast 434 499 39,000 -120 Level Memphis Center
05:40PM 36.0606 -86.6236 146° Southeast 414 476 38,800 -900 Descending Memphis Center
05:41PM 35.9572 -86.5822 162° South 385 443 37,300 -1,560 Descending Memphis Center
05:42PM 35.8575 -86.5944 186° South 385 443 35,700 -1,320 Descending Memphis Center
05:43PM 35.7433 -86.6075 185° South 410 472 34,700 -1,080 Descending Memphis Center
05:45PM 35.5472 -86.6167 182° South 421 484 33,000 -480 Descending Atlanta Center
05:47PM 35.3531 -86.4247 141° Southeast 441 507 33,000  Level Atlanta Center
05:48PM 35.2592 -86.3153 136° Southeast 461 531 33,000  Level Atlanta Center
05:49PM 35.1856 -86.2319 137° Southeast 458 527 33,000  Level Atlanta Center
05:50PM 35.0728 -86.1122 139° Southeast 458 527 33,000 -660 Level Atlanta Center
05:51PM 34.9742 -86.0186 142° Southeast 453 521 31,700 -1,440 Descending Atlanta Center
05:52PM 34.8744 -86.0008 172° South 412 474 30,200 -900 Descending Atlanta Center
05:53PM 34.7550 -86.0233 189° South 402 463 30,000 -720 Descending Atlanta Center
05:54PM 34.6361 -86.0206 179° South 414 476 28,800 -1,320 Descending Atlanta Center
05:55PM 34.5439 -85.9100 135° Southeast 415 478 27,400 -1,380 Descending Atlanta Center
05:56PM 34.4689 -85.7522 120° Southeast 438 504 26,100 -1,500 Descending Atlanta Center
05:57PM 34.4000 -85.6072 120° Southeast 468 539 24,500 -1,920 Descending Atlanta Center
05:59PM 34.2819 -85.3586 120° Southeast 455 524 20,400 -2,100 Descending Atlanta Center
06:00PM 34.2206 -85.2347 121° Southeast 433 498 18,300 -2,100 Descending Atlanta Center
06:01PM 34.1631 -85.1258 123° Southeast 403 464 16,300 -2,100 Descending Atlanta Center
06:02PM 34.0950 -85.0297 131° Southeast 381 438 14,200 -1,200 Descending Atlanta Center
06:03PM 34.0206 -84.9361 134° Southeast 376 433 13,900 -720 Descending Atlanta Center
06:04PM 33.9481 -84.8453 134° Southeast 376 433 12,800 -900 Descending Atlanta Center
06:05PM 33.8500 -84.7167 133° Southeast 370 426 12,000 -420 Descending Atlanta TRACON
06:06PM 33.7833 -84.6333 134° Southeast 324 373 12,000 -120 Level Atlanta TRACON
06:07PM 33.7333 -84.5667 132° Southeast 266 306 11,800 -1,080 Descending Atlanta TRACON
06:08PM 33.7333 -84.4833 90° East 267 307 9,900 -1,860 Descending Atlanta TRACON
06:09PM 33.7333 -84.4000 90° East 258 297 8,100 -1,860 Descending Atlanta TRACON
06:10PM 33.7333 -84.3167 90° East 248 285 6,200 -1,620 Descending Atlanta TRACON
06:11PM 33.7167 -84.2500 107° East 225 259 4,900 -1,320 Descending Atlanta TRACON